Forside
METAR-TAF:

METAR-TAF

Lufthavne :

Fillmore County Airport

Preston, Minnesota, USA

Breddekreds: 43-40-36N, længdekreds: 092-10-47W, højde: 389 m

Aktuelle vejr

Denne rapport blev lavet for 28 minutter siden, kl. 11:55 UTC
Vind 9 kt fra sydøst
Temperatur 0°C
Fugtighed 93%
Tryk 1017 hPa
Sigt: 1.6 km
Overskyet i en højde af 400 ft
let sne

METAR: KFKA 241155Z AUTO 13009KT 1SM -SN OVC004 00/M01 A3004 RMK AO2 T10021010 10000 21005

Tid: 06:23 (12:23 UTC)


TAF: fraværende

Vejrobservationer og prognoser fra mere end 4000 lufthavne (METAR og TAF).

De gule og røde prikker repræsenterer de meteorologiske stationer.

Flyt musen over at se navnet på stationen.

Så klik over at se vejr observationer og prognoser.

At skifte det kort: Klik på de grønne knapper med et sort kors for at zoome ind; på den grønne knap med en bindestreg for at zoome ud; eller på de grønne pile for tilstødende kort.


METAR-TAF: